sensor_id;sensor_type;location;lat;lon;timestamp;P1;durP1;ratioP1;P2;durP2;ratioP2
19434;SDS011;9853;50.848;4.108;2023-03-14T00:01:50;11.38;;;1.33;;
19434;SDS011;9853;50.848;4.108;2023-03-14T00:03:51;5.93;;;1.05;;
19434;SDS011;9853;50.848;4.108;2023-03-14T00:05:52;7.95;;;1.35;;
19434;SDS011;9853;50.848;4.108;2023-03-14T00:07:53;11.25;;;1.38;;
19434;SDS011;9853;50.848;4.108;2023-03-14T00:09:54;13.25;;;1.38;;
19434;SDS011;9853;50.848;4.108;2023-03-14T00:11:55;8.55;;;1.00;;
19434;SDS011;9853;50.848;4.108;2023-03-14T00:13:57;9.68;;;1.30;;
19434;SDS011;9853;50.848;4.108;2023-03-14T00:16:04;13.05;;;1.55;;
19434;SDS011;9853;50.848;4.108;2023-03-14T00:18:06;9.30;;;1.63;;
19434;SDS011;9853;50.848;4.108;2023-03-14T00:20:07;9.88;;;1.40;;
19434;SDS011;9853;50.848;4.108;2023-03-14T00:22:09;7.25;;;1.17;;
19434;SDS011;9853;50.848;4.108;2023-03-14T00:24:10;15.90;;;1.50;;
19434;SDS011;9853;50.848;4.108;2023-03-14T00:26:16;14.13;;;1.80;;
19434;SDS011;9853;50.848;4.108;2023-03-14T00:28:18;10.25;;;1.38;;
19434;SDS011;9853;50.848;4.108;2023-03-14T00:30:26;8.82;;;1.17;;
19434;SDS011;9853;50.848;4.108;2023-03-14T00:32:27;8.55;;;1.40;;
19434;SDS011;9853;50.848;4.108;2023-03-14T00:34:29;11.93;;;1.42;;
19434;SDS011;9853;50.848;4.108;2023-03-14T00:36:30;10.77;;;1.10;;
19434;SDS011;9853;50.848;4.108;2023-03-14T00:38:31;12.48;;;1.60;;
19434;SDS011;9853;50.848;4.108;2023-03-14T00:40:33;16.50;;;1.83;;
19434;SDS011;9853;50.848;4.108;2023-03-14T00:42:34;10.27;;;1.55;;
19434;SDS011;9853;50.848;4.108;2023-03-14T00:44:35;12.13;;;1.52;;
19434;SDS011;9853;50.848;4.108;2023-03-14T00:46:40;12.05;;;1.67;;
19434;SDS011;9853;50.848;4.108;2023-03-14T00:48:45;18.33;;;2.35;;
19434;SDS011;9853;50.848;4.108;2023-03-14T00:50:46;9.25;;;1.52;;
19434;SDS011;9853;50.848;4.108;2023-03-14T00:52:49;7.55;;;1.52;;
19434;SDS011;9853;50.848;4.108;2023-03-14T00:54:50;11.50;;;1.55;;
19434;SDS011;9853;50.848;4.108;2023-03-14T00:56:51;10.75;;;1.55;;
19434;SDS011;9853;50.848;4.108;2023-03-14T00:58:55;15.20;;;1.40;;
19434;SDS011;9853;50.848;4.108;2023-03-14T01:00:56;18.75;;;1.92;;
19434;SDS011;9853;50.848;4.108;2023-03-14T01:02:59;10.55;;;1.45;;
19434;SDS011;9853;50.848;4.108;2023-03-14T01:05:00;11.75;;;1.58;;
19434;SDS011;9853;50.848;4.108;2023-03-14T01:07:04;14.52;;;1.90;;
19434;SDS011;9853;50.848;4.108;2023-03-14T01:09:05;15.05;;;1.80;;
19434;SDS011;9853;50.848;4.108;2023-03-14T01:11:17;10.50;;;1.75;;
19434;SDS011;9853;50.848;4.108;2023-03-14T01:13:20;13.18;;;2.00;;
19434;SDS011;9853;50.848;4.108;2023-03-14T01:15:23;8.93;;;1.38;;
19434;SDS011;9853;50.848;4.108;2023-03-14T01:17:26;9.75;;;1.45;;
19434;SDS011;9853;50.848;4.108;2023-03-14T01:19:28;11.77;;;1.77;;
19434;SDS011;9853;50.848;4.108;2023-03-14T01:21:30;13.73;;;1.88;;
19434;SDS011;9853;50.848;4.108;2023-03-14T01:23:43;11.85;;;1.77;;
19434;SDS011;9853;50.848;4.108;2023-03-14T01:25:44;18.45;;;2.28;;
19434;SDS011;9853;50.848;4.108;2023-03-14T01:27:45;9.73;;;1.45;;
19434;SDS011;9853;50.848;4.108;2023-03-14T01:29:49;14.80;;;2.10;;
19434;SDS011;9853;50.848;4.108;2023-03-14T01:31:50;12.20;;;1.60;;
19434;SDS011;9853;50.848;4.108;2023-03-14T01:33:51;12.90;;;1.33;;
19434;SDS011;9853;50.848;4.108;2023-03-14T01:35:56;15.90;;;2.30;;
19434;SDS011;9853;50.848;4.108;2023-03-14T01:37:57;11.20;;;1.45;;
19434;SDS011;9853;50.848;4.108;2023-03-14T01:40:01;17.73;;;1.58;;
19434;SDS011;9853;50.848;4.108;2023-03-14T01:42:04;17.75;;;1.90;;
19434;SDS011;9853;50.848;4.108;2023-03-14T01:44:10;11.95;;;1.90;;
19434;SDS011;9853;50.848;4.108;2023-03-14T01:46:26;12.43;;;1.77;;
19434;SDS011;9853;50.848;4.108;2023-03-14T01:48:34;8.30;;;1.10;;
19434;SDS011;9853;50.848;4.108;2023-03-14T01:50:39;10.50;;;1.27;;
19434;SDS011;9853;50.848;4.108;2023-03-14T01:52:44;9.43;;;1.20;;
19434;SDS011;9853;50.848;4.108;2023-03-14T01:55:23;10.95;;;1.00;;
19434;SDS011;9853;50.848;4.108;2023-03-14T01:57:32;7.47;;;1.00;;
19434;SDS011;9853;50.848;4.108;2023-03-14T01:59:42;10.38;;;1.05;;
19434;SDS011;9853;50.848;4.108;2023-03-14T02:01:52;10.07;;;1.00;;
19434;SDS011;9853;50.848;4.108;2023-03-14T02:03:59;10.48;;;1.10;;
19434;SDS011;9853;50.848;4.108;2023-03-14T02:06:06;10.32;;;1.15;;
19434;SDS011;9853;50.848;4.108;2023-03-14T02:08:14;3.55;;;0.73;;
19434;SDS011;9853;50.848;4.108;2023-03-14T02:10:22;7.90;;;0.90;;
19434;SDS011;9853;50.848;4.108;2023-03-14T02:12:33;5.13;;;0.73;;
19434;SDS011;9853;50.848;4.108;2023-03-14T02:14:46;6.25;;;0.85;;
19434;SDS011;9853;50.848;4.108;2023-03-14T02:16:55;8.90;;;0.98;;
19434;SDS011;9853;50.848;4.108;2023-03-14T02:19:26;7.78;;;1.08;;
19434;SDS011;9853;50.848;4.108;2023-03-14T02:21:59;5.13;;;0.65;;
19434;SDS011;9853;50.848;4.108;2023-03-14T02:26:27;5.30;;;0.60;;
19434;SDS011;9853;50.848;4.108;2023-03-14T02:28:57;4.60;;;0.90;;
19434;SDS011;9853;50.848;4.108;2023-03-14T02:30:58;9.50;;;0.95;;
19434;SDS011;9853;50.848;4.108;2023-03-14T02:33:01;6.15;;;1.40;;
19434;SDS011;9853;50.848;4.108;2023-03-14T02:35:06;7.22;;;1.10;;
19434;SDS011;9853;50.848;4.108;2023-03-14T02:37:11;7.07;;;1.15;;
19434;SDS011;9853;50.848;4.108;2023-03-14T02:39:20;9.32;;;1.33;;
19434;SDS011;9853;50.848;4.108;2023-03-14T02:41:30;11.07;;;1.05;;
19434;SDS011;9853;50.848;4.108;2023-03-14T02:43:35;10.02;;;1.17;;
19434;SDS011;9853;50.848;4.108;2023-03-14T02:45:48;11.02;;;1.50;;
19434;SDS011;9853;50.848;4.108;2023-03-14T02:47:58;10.70;;;1.65;;
19434;SDS011;9853;50.848;4.108;2023-03-14T02:50:18;11.73;;;1.63;;
19434;SDS011;9853;50.848;4.108;2023-03-14T02:52:27;10.02;;;1.23;;
19434;SDS011;9853;50.848;4.108;2023-03-14T02:54:28;9.65;;;1.95;;
19434;SDS011;9853;50.848;4.108;2023-03-14T02:56:29;13.02;;;1.45;;
19434;SDS011;9853;50.848;4.108;2023-03-14T02:58:30;17.30;;;2.13;;
19434;SDS011;9853;50.848;4.108;2023-03-14T03:00:39;12.82;;;1.63;;
19434;SDS011;9853;50.848;4.108;2023-03-14T03:02:42;12.75;;;1.50;;
19434;SDS011;9853;50.848;4.108;2023-03-14T03:04:43;14.13;;;1.92;;
19434;SDS011;9853;50.848;4.108;2023-03-14T03:06:47;17.05;;;1.88;;
19434;SDS011;9853;50.848;4.108;2023-03-14T03:08:49;16.73;;;2.30;;
19434;SDS011;9853;50.848;4.108;2023-03-14T03:10:51;14.75;;;1.77;;
19434;SDS011;9853;50.848;4.108;2023-03-14T03:12:57;17.98;;;2.55;;
19434;SDS011;9853;50.848;4.108;2023-03-14T03:15:00;16.77;;;2.20;;
19434;SDS011;9853;50.848;4.108;2023-03-14T03:17:01;14.73;;;2.00;;
19434;SDS011;9853;50.848;4.108;2023-03-14T03:19:04;14.43;;;1.73;;
19434;SDS011;9853;50.848;4.108;2023-03-14T03:21:05;11.73;;;1.85;;
19434;SDS011;9853;50.848;4.108;2023-03-14T03:23:12;18.75;;;2.38;;
19434;SDS011;9853;50.848;4.108;2023-03-14T03:25:13;19.17;;;2.35;;
19434;SDS011;9853;50.848;4.108;2023-03-14T03:27:13;13.93;;;2.05;;
19434;SDS011;9853;50.848;4.108;2023-03-14T03:29:17;16.27;;;2.65;;
19434;SDS011;9853;50.848;4.108;2023-03-14T03:31:19;19.50;;;2.28;;
19434;SDS011;9853;50.848;4.108;2023-03-14T03:33:29;13.65;;;2.17;;
19434;SDS011;9853;50.848;4.108;2023-03-14T03:35:35;17.40;;;2.75;;
19434;SDS011;9853;50.848;4.108;2023-03-14T03:37:42;20.52;;;2.03;;
19434;SDS011;9853;50.848;4.108;2023-03-14T03:39:43;13.60;;;2.30;;
19434;SDS011;9853;50.848;4.108;2023-03-14T03:41:46;10.68;;;2.10;;
19434;SDS011;9853;50.848;4.108;2023-03-14T03:43:47;11.25;;;1.60;;
19434;SDS011;9853;50.848;4.108;2023-03-14T03:45:51;6.97;;;1.88;;
19434;SDS011;9853;50.848;4.108;2023-03-14T03:47:57;11.77;;;2.33;;
19434;SDS011;9853;50.848;4.108;2023-03-14T03:49:57;13.45;;;2.20;;
19434;SDS011;9853;50.848;4.108;2023-03-14T03:51:58;10.13;;;2.15;;
19434;SDS011;9853;50.848;4.108;2023-03-14T03:54:02;9.80;;;2.03;;
19434;SDS011;9853;50.848;4.108;2023-03-14T03:56:06;11.93;;;2.17;;
19434;SDS011;9853;50.848;4.108;2023-03-14T03:58:08;13.25;;;2.05;;
19434;SDS011;9853;50.848;4.108;2023-03-14T04:00:09;13.63;;;2.17;;
19434;SDS011;9853;50.848;4.108;2023-03-14T04:02:15;12.60;;;1.98;;
19434;SDS011;9853;50.848;4.108;2023-03-14T04:04:17;12.27;;;2.10;;
19434;SDS011;9853;50.848;4.108;2023-03-14T04:06:18;6.55;;;1.70;;
19434;SDS011;9853;50.848;4.108;2023-03-14T04:08:23;8.95;;;1.85;;
19434;SDS011;9853;50.848;4.108;2023-03-14T04:10:24;8.68;;;1.67;;
19434;SDS011;9853;50.848;4.108;2023-03-14T04:13:03;7.28;;;1.58;;
19434;SDS011;9853;50.848;4.108;2023-03-14T04:15:09;12.23;;;2.17;;
19434;SDS011;9853;50.848;4.108;2023-03-14T04:17:12;5.25;;;1.33;;
19434;SDS011;9853;50.848;4.108;2023-03-14T04:19:13;9.68;;;1.85;;
19434;SDS011;9853;50.848;4.108;2023-03-14T04:21:14;10.13;;;1.95;;
19434;SDS011;9853;50.848;4.108;2023-03-14T04:23:21;10.57;;;1.98;;
19434;SDS011;9853;50.848;4.108;2023-03-14T04:25:33;6.30;;;1.63;;
19434;SDS011;9853;50.848;4.108;2023-03-14T04:27:41;6.60;;;1.80;;
19434;SDS011;9853;50.848;4.108;2023-03-14T04:29:55;12.00;;;1.70;;
19434;SDS011;9853;50.848;4.108;2023-03-14T04:32:20;9.60;;;1.80;;
19434;SDS011;9853;50.848;4.108;2023-03-14T04:34:21;8.07;;;1.45;;
19434;SDS011;9853;50.848;4.108;2023-03-14T04:36:26;6.70;;;1.60;;
19434;SDS011;9853;50.848;4.108;2023-03-14T04:38:31;13.18;;;1.83;;
19434;SDS011;9853;50.848;4.108;2023-03-14T04:40:33;8.88;;;2.03;;
19434;SDS011;9853;50.848;4.108;2023-03-14T04:42:39;7.70;;;2.00;;
19434;SDS011;9853;50.848;4.108;2023-03-14T04:44:40;8.23;;;1.77;;
19434;SDS011;9853;50.848;4.108;2023-03-14T04:46:41;7.22;;;1.63;;
19434;SDS011;9853;50.848;4.108;2023-03-14T04:48:46;8.20;;;2.13;;
19434;SDS011;9853;50.848;4.108;2023-03-14T04:50:48;8.13;;;1.95;;
19434;SDS011;9853;50.848;4.108;2023-03-14T04:52:53;5.45;;;1.85;;
19434;SDS011;9853;50.848;4.108;2023-03-14T04:54:55;7.30;;;2.15;;
19434;SDS011;9853;50.848;4.108;2023-03-14T04:56:58;5.38;;;2.05;;
19434;SDS011;9853;50.848;4.108;2023-03-14T04:59:02;7.75;;;1.90;;
19434;SDS011;9853;50.848;4.108;2023-03-14T05:01:05;7.57;;;2.35;;
19434;SDS011;9853;50.848;4.108;2023-03-14T05:03:34;5.97;;;1.88;;
19434;SDS011;9853;50.848;4.108;2023-03-14T05:06:08;6.53;;;1.90;;
19434;SDS011;9853;50.848;4.108;2023-03-14T05:08:24;7.57;;;1.90;;
19434;SDS011;9853;50.848;4.108;2023-03-14T05:10:57;6.90;;;2.08;;
19434;SDS011;9853;50.848;4.108;2023-03-14T05:13:31;8.65;;;1.92;;
19434;SDS011;9853;50.848;4.108;2023-03-14T05:15:41;8.57;;;2.40;;
19434;SDS011;9853;50.848;4.108;2023-03-14T05:18:01;5.57;;;1.98;;
19434;SDS011;9853;50.848;4.108;2023-03-14T05:20:29;5.47;;;2.03;;
19434;SDS011;9853;50.848;4.108;2023-03-14T05:22:52;8.30;;;2.35;;
19434;SDS011;9853;50.848;4.108;2023-03-14T05:25:13;5.00;;;1.73;;
19434;SDS011;9853;50.848;4.108;2023-03-14T05:27:25;8.55;;;2.30;;
19434;SDS011;9853;50.848;4.108;2023-03-14T05:29:46;4.70;;;1.70;;
19434;SDS011;9853;50.848;4.108;2023-03-14T05:32:06;4.70;;;2.10;;
19434;SDS011;9853;50.848;4.108;2023-03-14T05:34:27;9.18;;;1.98;;
19434;SDS011;9853;50.848;4.108;2023-03-14T05:36:44;6.30;;;1.70;;
19434;SDS011;9853;50.848;4.108;2023-03-14T05:39:05;5.57;;;1.40;;
19434;SDS011;9853;50.848;4.108;2023-03-14T05:41:39;3.45;;;1.67;;
19434;SDS011;9853;50.848;4.108;2023-03-14T05:44:04;4.28;;;1.60;;
19434;SDS011;9853;50.848;4.108;2023-03-14T05:46:28;3.45;;;1.60;;
19434;SDS011;9853;50.848;4.108;2023-03-14T05:48:49;4.95;;;2.20;;
19434;SDS011;9853;50.848;4.108;2023-03-14T05:51:01;4.78;;;1.90;;
19434;SDS011;9853;50.848;4.108;2023-03-14T05:53:39;7.22;;;2.55;;
19434;SDS011;9853;50.848;4.108;2023-03-14T05:56:07;5.20;;;2.10;;
19434;SDS011;9853;50.848;4.108;2023-03-14T05:58:29;6.45;;;2.50;;
19434;SDS011;9853;50.848;4.108;2023-03-14T06:00:48;7.93;;;2.60;;
19434;SDS011;9853;50.848;4.108;2023-03-14T06:03:07;8.32;;;3.63;;
19434;SDS011;9853;50.848;4.108;2023-03-14T06:05:10;7.70;;;3.28;;
19434;SDS011;9853;50.848;4.108;2023-03-14T06:07:12;6.95;;;2.65;;
19434;SDS011;9853;50.848;4.108;2023-03-14T06:09:15;5.13;;;2.58;;
19434;SDS011;9853;50.848;4.108;2023-03-14T06:11:19;7.97;;;3.60;;
19434;SDS011;9853;50.848;4.108;2023-03-14T06:13:20;6.78;;;3.95;;
19434;SDS011;9853;50.848;4.108;2023-03-14T06:15:43;7.75;;;3.55;;
19434;SDS011;9853;50.848;4.108;2023-03-14T06:17:45;6.32;;;3.40;;
19434;SDS011;9853;50.848;4.108;2023-03-14T06:19:47;6.50;;;3.45;;
19434;SDS011;9853;50.848;4.108;2023-03-14T06:21:50;9.73;;;4.07;;
19434;SDS011;9853;50.848;4.108;2023-03-14T06:23:54;8.02;;;3.88;;
19434;SDS011;9853;50.848;4.108;2023-03-14T06:26:00;6.82;;;3.47;;
19434;SDS011;9853;50.848;4.108;2023-03-14T06:28:01;12.90;;;4.82;;
19434;SDS011;9853;50.848;4.108;2023-03-14T06:30:02;6.32;;;1.50;;
19434;SDS011;9853;50.848;4.108;2023-03-14T06:32:05;3.50;;;1.10;;
19434;SDS011;9853;50.848;4.108;2023-03-14T06:34:06;7.00;;;0.93;;
19434;SDS011;9853;50.848;4.108;2023-03-14T06:36:07;2.23;;;0.70;;
19434;SDS011;9853;50.848;4.108;2023-03-14T06:38:09;3.97;;;1.25;;
19434;SDS011;9853;50.848;4.108;2023-03-14T06:40:16;1.17;;;0.57;;
19434;SDS011;9853;50.848;4.108;2023-03-14T06:42:38;2.25;;;1.10;;
19434;SDS011;9853;50.848;4.108;2023-03-14T06:44:39;5.00;;;1.97;;
19434;SDS011;9853;50.848;4.108;2023-03-14T06:46:40;6.85;;;2.60;;
19434;SDS011;9853;50.848;4.108;2023-03-14T06:48:41;2.90;;;1.57;;
19434;SDS011;9853;50.848;4.108;2023-03-14T06:50:43;3.77;;;1.50;;
19434;SDS011;9853;50.848;4.108;2023-03-14T06:52:43;7.30;;;1.37;;
19434;SDS011;9853;50.848;4.108;2023-03-14T06:54:50;8.43;;;1.47;;
19434;SDS011;9853;50.848;4.108;2023-03-14T06:56:56;2.80;;;1.17;;
19434;SDS011;9853;50.848;4.108;2023-03-14T06:58:57;7.33;;;1.20;;
19434;SDS011;9853;50.848;4.108;2023-03-14T07:01:01;5.07;;;1.53;;
19434;SDS011;9853;50.848;4.108;2023-03-14T07:03:08;2.27;;;1.00;;
19434;SDS011;9853;50.848;4.108;2023-03-14T07:05:13;3.83;;;1.40;;
19434;SDS011;9853;50.848;4.108;2023-03-14T07:07:13;2.40;;;1.17;;
19434;SDS011;9853;50.848;4.108;2023-03-14T07:09:14;4.73;;;1.20;;
19434;SDS011;9853;50.848;4.108;2023-03-14T07:11:23;5.97;;;1.40;;
19434;SDS011;9853;50.848;4.108;2023-03-14T07:13:25;3.13;;;1.20;;
19434;SDS011;9853;50.848;4.108;2023-03-14T07:15:33;6.67;;;1.50;;
19434;SDS011;9853;50.848;4.108;2023-03-14T07:17:38;4.57;;;1.37;;
19434;SDS011;9853;50.848;4.108;2023-03-14T07:19:39;7.07;;;1.37;;
19434;SDS011;9853;50.848;4.108;2023-03-14T07:21:42;4.30;;;1.60;;
19434;SDS011;9853;50.848;4.108;2023-03-14T07:23:46;4.37;;;1.53;;
19434;SDS011;9853;50.848;4.108;2023-03-14T07:25:47;5.17;;;2.30;;
19434;SDS011;9853;50.848;4.108;2023-03-14T07:27:51;3.77;;;1.97;;
19434;SDS011;9853;50.848;4.108;2023-03-14T07:29:51;2.20;;;1.00;;
19434;SDS011;9853;50.848;4.108;2023-03-14T07:31:52;6.33;;;2.03;;
19434;SDS011;9853;50.848;4.108;2023-03-14T07:33:55;7.63;;;2.20;;
19434;SDS011;9853;50.848;4.108;2023-03-14T07:35:57;5.27;;;2.40;;
19434;SDS011;9853;50.848;4.108;2023-03-14T07:37:58;8.23;;;2.90;;
19434;SDS011;9853;50.848;4.108;2023-03-14T07:40:06;6.63;;;2.30;;
19434;SDS011;9853;50.848;4.108;2023-03-14T07:42:09;6.47;;;2.13;;
19434;SDS011;9853;50.848;4.108;2023-03-14T07:44:31;4.73;;;2.13;;
19434;SDS011;9853;50.848;4.108;2023-03-14T07:46:32;5.63;;;2.50;;
19434;SDS011;9853;50.848;4.108;2023-03-14T07:48:33;8.20;;;3.00;;
19434;SDS011;9853;50.848;4.108;2023-03-14T07:50:34;6.27;;;2.60;;
19434;SDS011;9853;50.848;4.108;2023-03-14T07:52:35;5.50;;;2.40;;
19434;SDS011;9853;50.848;4.108;2023-03-14T07:54:35;6.27;;;3.40;;
19434;SDS011;9853;50.848;4.108;2023-03-14T07:56:38;6.83;;;3.43;;
19434;SDS011;9853;50.848;4.108;2023-03-14T07:58:39;5.23;;;2.73;;
19434;SDS011;9853;50.848;4.108;2023-03-14T08:00:39;6.93;;;3.50;;
19434;SDS011;9853;50.848;4.108;2023-03-14T08:02:40;6.17;;;3.00;;
19434;SDS011;9853;50.848;4.108;2023-03-14T08:04:41;6.33;;;3.10;;
19434;SDS011;9853;50.848;4.108;2023-03-14T08:06:42;8.20;;;2.77;;
19434;SDS011;9853;50.848;4.108;2023-03-14T08:08:43;4.85;;;2.05;;
19434;SDS011;9853;50.848;4.108;2023-03-14T08:10:44;6.97;;;2.10;;
19434;SDS011;9853;50.848;4.108;2023-03-14T08:12:46;14.03;;;2.50;;
19434;SDS011;9853;50.848;4.108;2023-03-14T08:14:47;9.80;;;2.33;;
19434;SDS011;9853;50.848;4.108;2023-03-14T08:16:48;11.17;;;1.70;;
19434;SDS011;9853;50.848;4.108;2023-03-14T08:18:49;8.73;;;1.80;;
19434;SDS011;9853;50.848;4.108;2023-03-14T08:20:51;11.67;;;1.97;;
19434;SDS011;9853;50.848;4.108;2023-03-14T08:22:52;7.93;;;1.70;;
19434;SDS011;9853;50.848;4.108;2023-03-14T08:24:55;8.33;;;2.47;;
19434;SDS011;9853;50.848;4.108;2023-03-14T08:26:57;13.40;;;2.90;;
19434;SDS011;9853;50.848;4.108;2023-03-14T08:28:57;14.70;;;2.77;;
19434;SDS011;9853;50.848;4.108;2023-03-14T08:30:59;11.63;;;2.13;;
19434;SDS011;9853;50.848;4.108;2023-03-14T08:33:01;10.17;;;2.10;;
19434;SDS011;9853;50.848;4.108;2023-03-14T08:35:02;10.30;;;2.00;;
19434;SDS011;9853;50.848;4.108;2023-03-14T08:37:03;4.97;;;1.80;;
19434;SDS011;9853;50.848;4.108;2023-03-14T08:39:05;7.97;;;2.57;;
19434;SDS011;9853;50.848;4.108;2023-03-14T08:41:07;5.20;;;1.90;;
19434;SDS011;9853;50.848;4.108;2023-03-14T08:43:08;5.33;;;1.93;;
19434;SDS011;9853;50.848;4.108;2023-03-14T08:45:11;8.37;;;1.77;;
19434;SDS011;9853;50.848;4.108;2023-03-14T08:47:14;10.17;;;2.10;;
19434;SDS011;9853;50.848;4.108;2023-03-14T08:49:14;8.23;;;1.90;;
19434;SDS011;9853;50.848;4.108;2023-03-14T08:51:15;13.97;;;2.83;;
19434;SDS011;9853;50.848;4.108;2023-03-14T08:53:17;10.97;;;2.67;;
19434;SDS011;9853;50.848;4.108;2023-03-14T08:55:18;12.57;;;2.60;;
19434;SDS011;9853;50.848;4.108;2023-03-14T08:57:19;11.47;;;2.60;;
19434;SDS011;9853;50.848;4.108;2023-03-14T08:59:22;15.53;;;2.20;;
19434;SDS011;9853;50.848;4.108;2023-03-14T09:01:23;16.13;;;4.23;;
19434;SDS011;9853;50.848;4.108;2023-03-14T09:03:25;23.37;;;2.57;;
19434;SDS011;9853;50.848;4.108;2023-03-14T09:05:26;14.73;;;2.20;;
19434;SDS011;9853;50.848;4.108;2023-03-14T09:07:27;10.20;;;2.40;;
19434;SDS011;9853;50.848;4.108;2023-03-14T09:09:27;17.53;;;3.07;;
19434;SDS011;9853;50.848;4.108;2023-03-14T09:11:32;19.10;;;2.37;;
19434;SDS011;9853;50.848;4.108;2023-03-14T09:13:33;15.60;;;2.13;;
19434;SDS011;9853;50.848;4.108;2023-03-14T09:15:35;11.23;;;2.03;;
19434;SDS011;9853;50.848;4.108;2023-03-14T09:17:36;13.23;;;2.30;;
19434;SDS011;9853;50.848;4.108;2023-03-14T09:19:37;15.70;;;2.67;;
19434;SDS011;9853;50.848;4.108;2023-03-14T09:21:40;11.13;;;1.90;;
19434;SDS011;9853;50.848;4.108;2023-03-14T09:23:41;9.47;;;1.77;;
19434;SDS011;9853;50.848;4.108;2023-03-14T09:25:43;14.87;;;2.10;;
19434;SDS011;9853;50.848;4.108;2023-03-14T09:27:44;13.83;;;4.60;;
19434;SDS011;9853;50.848;4.108;2023-03-14T09:29:44;10.10;;;1.60;;
19434;SDS011;9853;50.848;4.108;2023-03-14T09:31:47;16.50;;;1.60;;
19434;SDS011;9853;50.848;4.108;2023-03-14T09:33:49;11.50;;;1.47;;
19434;SDS011;9853;50.848;4.108;2023-03-14T09:35:50;7.03;;;1.90;;
19434;SDS011;9853;50.848;4.108;2023-03-14T09:37:51;13.13;;;2.10;;
19434;SDS011;9853;50.848;4.108;2023-03-14T09:39:52;10.13;;;2.00;;
19434;SDS011;9853;50.848;4.108;2023-03-14T09:41:52;4.37;;;1.20;;
19434;SDS011;9853;50.848;4.108;2023-03-14T09:44:05;11.33;;;3.00;;
19434;SDS011;9853;50.848;4.108;2023-03-14T09:46:14;17.40;;;4.07;;
19434;SDS011;9853;50.848;4.108;2023-03-14T09:48:17;11.97;;;1.93;;
19434;SDS011;9853;50.848;4.108;2023-03-14T09:50:22;13.00;;;1.77;;
19434;SDS011;9853;50.848;4.108;2023-03-14T09:52:27;8.87;;;1.77;;
19434;SDS011;9853;50.848;4.108;2023-03-14T09:56:37;10.20;;;1.80;;
19434;SDS011;9853;50.848;4.108;2023-03-14T09:58:38;10.37;;;1.33;;
19434;SDS011;9853;50.848;4.108;2023-03-14T10:00:42;4.47;;;1.20;;
19434;SDS011;9853;50.848;4.108;2023-03-14T10:02:50;13.27;;;1.70;;
19434;SDS011;9853;50.848;4.108;2023-03-14T10:04:55;8.30;;;1.50;;
19434;SDS011;9853;50.848;4.108;2023-03-14T10:06:56;6.00;;;1.07;;
19434;SDS011;9853;50.848;4.108;2023-03-14T10:08:57;7.57;;;1.80;;
19434;SDS011;9853;50.848;4.108;2023-03-14T10:10:58;17.30;;;1.57;;
19434;SDS011;9853;50.848;4.108;2023-03-14T10:13:05;7.77;;;1.20;;
19434;SDS011;9853;50.848;4.108;2023-03-14T10:15:26;5.40;;;1.20;;
19434;SDS011;9853;50.848;4.108;2023-03-14T10:17:37;8.60;;;1.50;;
19434;SDS011;9853;50.848;4.108;2023-03-14T10:19:53;7.73;;;1.30;;
19434;SDS011;9853;50.848;4.108;2023-03-14T10:22:00;10.83;;;1.63;;
19434;SDS011;9853;50.848;4.108;2023-03-14T10:24:34;6.23;;;1.20;;
19434;SDS011;9853;50.848;4.108;2023-03-14T10:26:29;11.07;;;1.60;;
19434;SDS011;9853;50.848;4.108;2023-03-14T10:30:46;9.20;;;1.67;;
19434;SDS011;9853;50.848;4.108;2023-03-14T10:32:51;9.90;;;1.30;;
19434;SDS011;9853;50.848;4.108;2023-03-14T10:35:07;6.47;;;1.40;;
19434;SDS011;9853;50.848;4.108;2023-03-14T10:37:21;8.33;;;1.37;;
19434;SDS011;9853;50.848;4.108;2023-03-14T10:39:32;8.20;;;1.30;;
19434;SDS011;9853;50.848;4.108;2023-03-14T10:41:47;8.37;;;1.30;;
19434;SDS011;9853;50.848;4.108;2023-03-14T10:43:53;9.03;;;1.70;;
19434;SDS011;9853;50.848;4.108;2023-03-14T10:46:01;5.73;;;1.17;;
19434;SDS011;9853;50.848;4.108;2023-03-14T10:50:35;6.40;;;1.40;;
19434;SDS011;9853;50.848;4.108;2023-03-14T10:52:36;6.97;;;1.30;;
19434;SDS011;9853;50.848;4.108;2023-03-14T10:54:57;9.40;;;1.20;;
19434;SDS011;9853;50.848;4.108;2023-03-14T10:57:01;11.77;;;1.30;;
19434;SDS011;9853;50.848;4.108;2023-03-14T10:59:12;11.33;;;1.13;;
19434;SDS011;9853;50.848;4.108;2023-03-14T11:03:42;8.20;;;1.33;;
19434;SDS011;9853;50.848;4.108;2023-03-14T11:06:04;3.60;;;0.77;;
19434;SDS011;9853;50.848;4.108;2023-03-14T11:08:30;5.13;;;0.67;;
19434;SDS011;9853;50.848;4.108;2023-03-14T11:13:32;2.23;;;0.70;;
19434;SDS011;9853;50.848;4.108;2023-03-14T11:20:32;2.80;;;0.50;;
19434;SDS011;9853;50.848;4.108;2023-03-14T11:29:59;2.57;;;0.40;;
19434;SDS011;9853;50.848;4.108;2023-03-14T11:32:20;4.87;;;0.80;;
19434;SDS011;9853;50.848;4.108;2023-03-14T11:34:51;1.03;;;0.60;;
19434;SDS011;9853;50.848;4.108;2023-03-14T11:37:00;4.07;;;0.40;;
19434;SDS011;9853;50.848;4.108;2023-03-14T11:39:16;3.20;;;0.90;;
19434;SDS011;9853;50.848;4.108;2023-03-14T11:43:37;2.67;;;0.33;;
19434;SDS011;9853;50.848;4.108;2023-03-14T11:45:43;3.67;;;0.70;;
19434;SDS011;9853;50.848;4.108;2023-03-14T11:47:44;4.77;;;0.60;;
19434;SDS011;9853;50.848;4.108;2023-03-14T11:49:56;2.93;;;0.63;;
19434;SDS011;9853;50.848;4.108;2023-03-14T11:52:06;3.80;;;0.80;;
19434;SDS011;9853;50.848;4.108;2023-03-14T11:54:22;4.10;;;0.60;;
19434;SDS011;9853;50.848;4.108;2023-03-14T11:56:55;3.37;;;0.73;;
19434;SDS011;9853;50.848;4.108;2023-03-14T11:59:03;2.27;;;0.77;;
19434;SDS011;9853;50.848;4.108;2023-03-14T12:01:09;4.17;;;1.30;;
19434;SDS011;9853;50.848;4.108;2023-03-14T12:07:40;4.27;;;0.93;;
19434;SDS011;9853;50.848;4.108;2023-03-14T12:09:58;2.37;;;1.00;;
19434;SDS011;9853;50.848;4.108;2023-03-14T12:12:02;4.87;;;1.20;;
19434;SDS011;9853;50.848;4.108;2023-03-14T12:14:22;3.43;;;1.60;;
19434;SDS011;9853;50.848;4.108;2023-03-14T12:16:34;3.83;;;1.50;;
19434;SDS011;9853;50.848;4.108;2023-03-14T12:18:38;3.87;;;1.37;;
19434;SDS011;9853;50.848;4.108;2023-03-14T12:20:41;3.27;;;1.47;;
19434;SDS011;9853;50.848;4.108;2023-03-14T12:22:57;3.33;;;1.50;;
19434;SDS011;9853;50.848;4.108;2023-03-14T12:25:05;7.63;;;1.10;;
19434;SDS011;9853;50.848;4.108;2023-03-14T12:27:40;4.43;;;1.50;;
19434;SDS011;9853;50.848;4.108;2023-03-14T12:29:57;2.63;;;1.37;;
19434;SDS011;9853;50.848;4.108;2023-03-14T12:34:10;4.67;;;1.63;;
19434;SDS011;9853;50.848;4.108;2023-03-14T12:36:31;3.30;;;1.23;;
19434;SDS011;9853;50.848;4.108;2023-03-14T12:43:28;2.93;;;1.07;;
19434;SDS011;9853;50.848;4.108;2023-03-14T12:45:31;21.60;;;9.93;;
19434;SDS011;9853;50.848;4.108;2023-03-14T12:49:37;6.13;;;1.60;;
19434;SDS011;9853;50.848;4.108;2023-03-14T12:51:41;14.10;;;3.30;;
19434;SDS011;9853;50.848;4.108;2023-03-14T12:54:05;8.63;;;2.97;;
19434;SDS011;9853;50.848;4.108;2023-03-14T13:01:36;11.20;;;1.80;;
19434;SDS011;9853;50.848;4.108;2023-03-14T13:06:05;6.93;;;1.80;;
19434;SDS011;9853;50.848;4.108;2023-03-14T13:08:09;15.33;;;4.80;;
19434;SDS011;9853;50.848;4.108;2023-03-14T13:12:13;11.17;;;2.17;;
19434;SDS011;9853;50.848;4.108;2023-03-14T13:14:16;12.63;;;1.90;;
19434;SDS011;9853;50.848;4.108;2023-03-14T13:16:20;13.83;;;1.70;;
19434;SDS011;9853;50.848;4.108;2023-03-14T13:18:29;9.20;;;1.57;;
19434;SDS011;9853;50.848;4.108;2023-03-14T13:20:55;14.30;;;2.70;;
19434;SDS011;9853;50.848;4.108;2023-03-14T13:23:01;15.27;;;1.87;;
19434;SDS011;9853;50.848;4.108;2023-03-14T13:25:03;13.13;;;1.80;;
19434;SDS011;9853;50.848;4.108;2023-03-14T13:27:24;14.73;;;2.37;;
19434;SDS011;9853;50.848;4.108;2023-03-14T13:29:29;17.03;;;2.70;;
19434;SDS011;9853;50.848;4.108;2023-03-14T13:31:31;14.20;;;2.00;;
19434;SDS011;9853;50.848;4.108;2023-03-14T13:33:32;6.33;;;0.90;;
19434;SDS011;9853;50.848;4.108;2023-03-14T13:36:11;5.27;;;1.40;;
19434;SDS011;9853;50.848;4.108;2023-03-14T13:38:13;8.53;;;1.83;;
19434;SDS011;9853;50.848;4.108;2023-03-14T13:40:41;6.30;;;1.70;;
19434;SDS011;9853;50.848;4.108;2023-03-14T13:42:44;10.10;;;1.87;;
19434;SDS011;9853;50.848;4.108;2023-03-14T13:44:44;15.60;;;2.57;;